Southwest Washington Regional Airport Kelso US
ICAO: KKLS
IATA: KLS
Category: Medium
Scheduled Services: No

Elevation: 20 ft
TransAlt. 18000 ft.

Airport Communications:
AWOS 3:135.075
SEATTLE CNTR:124.2
SEATTLE RDO:122.25
CTAF/UNICOM:122.8

KKLS Zoom In..

Runways:

(A) RW 12 length 4391 ft width 100 ft
---- / hdg 123

(B) RW 30 length 4391 ft width 100 ft
---- / hdg 303

Location; KKLS
Day. 19 / Time. 19.56 Zulu
* Altimeter: 30.23
* Temperature: 18° c. 64.4°f.
* Wind from: 290° Speed 08 kn.
Dewpoint: 10° c.
Visibility: 10 Statute Miles.
Clouds: Overcast 4000 ft.

KKLS 191956Z AUTO 29008KT 10SM OVC040 18/10 A3023 RMK AO2 SLP240 T01830100


Wind From 290°
Speed 08 kn.

 
 
jpsmedia.com for Web Design worldairports.se 2018   terms of use